createdAt,value
2017-09-08T00:01:06.937Z,99743.78
2017-09-08T00:03:36.829Z,99737.87
2017-09-08T00:06:05.888Z,99734.15
2017-09-08T00:08:35.728Z,99733.91
2017-09-08T00:11:04.808Z,99717.91
2017-09-08T00:13:33.863Z,99725.75
2017-09-08T00:16:03.796Z,99723.09
2017-09-08T00:18:33.156Z,99715.80
2017-09-08T00:21:02.472Z,99714.86
2017-09-08T00:23:31.524Z,99707.23
2017-09-08T00:26:00.585Z,99699.42
2017-09-08T00:28:30.701Z,99703.55
2017-09-08T00:30:59.799Z,99702.61
2017-09-08T00:33:28.926Z,99692.42
2017-09-08T00:35:58.255Z,99677.92
2017-09-08T00:38:27.317Z,99680.80
2017-09-08T00:40:57.136Z,99689.94
2017-09-08T00:43:26.199Z,99681.11
2017-09-08T00:45:56.024Z,99667.81
2017-09-08T00:48:25.879Z,99666.11
2017-09-08T00:50:54.922Z,99667.09
2017-09-08T00:53:24.016Z,99666.70
2017-09-08T00:55:53.051Z,99674.20
2017-09-08T00:58:22.139Z,99666.33
2017-09-08T01:00:51.965Z,99656.14
2017-09-08T01:03:21.023Z,99666.72
2017-09-08T01:05:50.860Z,99652.89
2017-09-08T01:08:19.912Z,99655.83
2017-09-08T01:10:49.011Z,99654.27
2017-09-08T01:13:18.064Z,99650.35
2017-09-08T01:15:47.106Z,99647.11
2017-09-08T01:18:16.934Z,99659.27
2017-09-08T01:20:46.746Z,99655.94
2017-09-08T01:23:16.593Z,99667.46
2017-09-08T01:25:45.647Z,99652.77
2017-09-08T01:28:15.500Z,99651.11
2017-09-08T01:30:44.660Z,99647.84
2017-09-08T01:33:13.703Z,99643.29
2017-09-08T01:35:42.780Z,99630.37
2017-09-08T01:38:11.871Z,99628.88
2017-09-08T01:40:40.931Z,99625.38
2017-09-08T01:43:11.298Z,99619.50
2017-09-08T01:45:40.972Z,99622.25
2017-09-08T01:48:10.045Z,99618.96
2017-09-08T01:50:39.120Z,99606.17
2017-09-08T01:53:08.236Z,99593.84
2017-09-08T01:55:38.750Z,99583.83
2017-09-08T01:58:07.850Z,99578.34
2017-09-08T02:00:36.919Z,99573.45
2017-09-08T02:03:06.015Z,99557.98
2017-09-08T02:05:35.037Z,99554.27
2017-09-08T02:08:04.131Z,99550.16
2017-09-08T02:10:33.199Z,99554.27
2017-09-08T02:13:02.312Z,99550.98
2017-09-08T02:15:31.403Z,99550.20
2017-09-08T02:18:00.449Z,99545.98
2017-09-08T02:20:30.280Z,99540.34
2017-09-08T02:22:59.655Z,99543.01
2017-09-08T02:25:28.735Z,99549.36
2017-09-08T02:27:57.800Z,99551.70
2017-09-08T02:30:26.849Z,99533.88
2017-09-08T02:32:56.690Z,99535.65
2017-09-08T02:35:25.745Z,99535.96
2017-09-08T02:37:55.602Z,99521.64
2017-09-08T02:40:24.940Z,99515.95
2017-09-08T02:42:54.623Z,99521.59
2017-09-08T02:45:23.700Z,99510.41
2017-09-08T02:47:53.544Z,99510.43
2017-09-08T02:50:22.591Z,99496.31
2017-09-08T02:52:52.422Z,99489.25
2017-09-08T02:55:21.510Z,99491.81
2017-09-08T02:57:50.554Z,99499.66
2017-09-08T03:00:19.631Z,99499.05
2017-09-08T03:02:48.753Z,99487.84
2017-09-08T03:05:17.805Z,99493.16
2017-09-08T03:07:46.894Z,99482.41
2017-09-08T03:10:15.974Z,99479.08
2017-09-08T03:12:45.808Z,99481.23
2017-09-08T03:15:14.852Z,99483.58
2017-09-08T03:17:44.709Z,99474.70
2017-09-08T03:20:13.772Z,99470.40
2017-09-08T03:22:42.838Z,99456.31
2017-09-08T03:25:12.057Z,99461.40
2017-09-08T03:27:41.124Z,99462.97
2017-09-08T03:30:10.200Z,99451.80
2017-09-08T03:32:39.269Z,99453.77
2017-09-08T03:35:09.100Z,99457.66
2017-09-08T03:37:38.221Z,99458.20
2017-09-08T03:40:07.301Z,99447.05
2017-09-08T03:42:36.337Z,99449.24
2017-09-08T03:45:05.465Z,99437.30
2017-09-08T03:47:35.524Z,99442.19
2017-09-08T03:50:04.596Z,99433.24
2017-09-08T03:52:33.961Z,99436.14
2017-09-08T03:55:03.933Z,99430.84
2017-09-08T03:57:32.952Z,99435.93
2017-09-08T04:00:02.000Z,99438.42
2017-09-08T04:02:31.080Z,99430.39
2017-09-08T04:05:00.901Z,99423.79
2017-09-08T04:07:29.967Z,99420.61
2017-09-08T04:09:59.017Z,99416.69
2017-09-08T04:12:28.096Z,99408.27
2017-09-08T04:14:57.134Z,99400.84
2017-09-08T04:17:26.935Z,99396.38
2017-09-08T04:19:56.010Z,99393.63
2017-09-08T04:22:25.092Z,99378.75
2017-09-08T04:24:54.178Z,99370.88
2017-09-08T04:27:23.249Z,99364.41
2017-09-08T04:29:52.652Z,99350.89
2017-09-08T04:32:21.745Z,99344.79
2017-09-08T04:34:50.790Z,99343.22
2017-09-08T04:37:19.828Z,99346.34
2017-09-08T04:39:48.924Z,99340.81
2017-09-08T04:42:18.353Z,99342.58
2017-09-08T04:44:47.435Z,99337.09
2017-09-08T04:47:17.328Z,99333.77
2017-09-08T04:49:46.387Z,99335.57
2017-09-08T04:52:15.467Z,99335.34
2017-09-08T04:54:44.558Z,99343.59
2017-09-08T04:57:13.612Z,99330.48
2017-09-08T04:59:42.743Z,99322.86
2017-09-08T05:02:11.814Z,99327.95
2017-09-08T05:04:40.864Z,99326.19
2017-09-08T05:07:09.944Z,99323.64
2017-09-08T05:09:39.007Z,99322.50
2017-09-08T05:12:08.927Z,99307.98
2017-09-08T05:14:38.320Z,99314.83
2017-09-08T05:17:07.396Z,99317.77
2017-09-08T05:19:36.460Z,99318.75
2017-09-08T05:22:05.552Z,99308.37
2017-09-08T05:24:34.861Z,99310.92
2017-09-08T05:27:03.970Z,99318.16
2017-09-08T05:29:33.408Z,99316.80
2017-09-08T05:32:03.332Z,99321.92
2017-09-08T05:34:33.139Z,99301.77
2017-09-08T05:37:03.080Z,99301.77
2017-09-08T05:39:32.151Z,99300.19
2017-09-08T05:42:01.257Z,99301.56
2017-09-08T05:44:30.350Z,99296.31
2017-09-08T05:46:59.414Z,99294.56
2017-09-08T05:49:28.725Z,99297.11
2017-09-08T05:51:57.993Z,99288.10
2017-09-08T05:54:27.075Z,99300.44
2017-09-08T05:56:56.154Z,99290.26
2017-09-08T05:59:25.202Z,99293.19
2017-09-08T06:01:54.289Z,99285.79
2017-09-08T06:04:23.339Z,99285.39
2017-09-08T06:06:52.409Z,99291.08
2017-09-08T06:09:22.245Z,99282.08
2017-09-08T06:11:51.429Z,99284.23
2017-09-08T06:14:20.505Z,99281.30
2017-09-08T06:16:49.757Z,99271.11
2017-09-08T06:19:18.815Z,99261.91
2017-09-08T06:21:48.629Z,99265.66
2017-09-08T06:24:18.468Z,99252.34
2017-09-08T06:26:47.531Z,99260.95
2017-09-08T06:29:16.617Z,99251.33
2017-09-08T06:31:45.684Z,99248.59
2017-09-08T06:34:14.776Z,99257.01
2017-09-08T06:36:43.801Z,99246.39
2017-09-08T06:39:13.657Z,99245.97
2017-09-08T06:41:42.686Z,99235.98
2017-09-08T06:44:11.772Z,99236.76
2017-09-08T06:46:40.847Z,99232.65
2017-09-08T06:49:09.898Z,99218.36
2017-09-08T06:51:38.954Z,99217.18
2017-09-08T06:54:08.379Z,99221.09
2017-09-08T06:56:39.396Z,99204.45
2017-09-08T06:59:09.544Z,99212.52
2017-09-08T07:01:38.612Z,99217.22
2017-09-08T07:04:07.717Z,99204.30
2017-09-08T07:06:36.744Z,99215.26
2017-09-08T07:09:06.573Z,99214.91
2017-09-08T07:11:36.427Z,99207.85
2017-09-08T07:14:05.479Z,99207.10
2017-09-08T07:16:35.311Z,99212.78
2017-09-08T07:19:04.409Z,99218.46
2017-09-08T07:21:33.446Z,99213.63
2017-09-08T07:24:04.047Z,99214.05
2017-09-08T07:26:33.109Z,99220.15
2017-09-08T07:29:02.927Z,99207.44
2017-09-08T07:31:32.027Z,99202.93
2017-09-08T07:34:01.092Z,99212.53
2017-09-08T07:36:30.912Z,99203.52
2017-09-08T07:39:00.759Z,99210.96
2017-09-08T07:41:29.823Z,99206.27
2017-09-08T07:43:59.680Z,99196.66
2017-09-08T07:46:28.707Z,99195.09
2017-09-08T07:48:57.785Z,99188.04
2017-09-08T07:51:26.848Z,99197.83
2017-09-08T07:53:55.911Z,99188.84
2017-09-08T07:56:25.754Z,99187.49
2017-09-08T07:58:55.075Z,99184.38
2017-09-08T08:01:24.164Z,99178.70
2017-09-08T08:03:53.223Z,99175.75
2017-09-08T08:06:22.635Z,99168.13
2017-09-08T08:08:51.685Z,99166.94
2017-09-08T08:11:20.741Z,99161.08
2017-09-08T08:13:49.840Z,99169.52
2017-09-08T08:16:18.937Z,99168.13
2017-09-08T08:18:48.021Z,99162.44
2017-09-08T08:21:17.844Z,99175.78
2017-09-08T08:23:46.886Z,99149.69
2017-09-08T08:26:15.952Z,99156.55
2017-09-08T08:28:44.995Z,99154.80
2017-09-08T08:31:14.073Z,99147.95
2017-09-08T08:33:43.110Z,99169.52
2017-09-08T08:36:12.212Z,99153.83
2017-09-08T08:38:41.282Z,99150.09
2017-09-08T08:41:11.110Z,99144.59
2017-09-08T08:43:40.957Z,99141.08
2017-09-08T08:46:10.032Z,99141.86
2017-09-08T08:48:39.086Z,99131.27
2017-09-08T08:51:08.916Z,99161.05
2017-09-08T08:53:37.993Z,99159.48
2017-09-08T08:56:07.097Z,99137.51
2017-09-08T08:58:37.687Z,99159.68
2017-09-08T09:01:06.791Z,99176.73
2017-09-08T09:03:35.841Z,99165.36
2017-09-08T09:06:04.906Z,99165.94
2017-09-08T09:08:33.985Z,99168.49
2017-09-08T09:11:03.121Z,99154.37
2017-09-08T09:13:32.945Z,99151.66
2017-09-08T09:16:01.991Z,99145.56
2017-09-08T09:18:31.040Z,99145.77
2017-09-08T09:21:00.104Z,99144.00
2017-09-08T09:23:29.931Z,99129.51
2017-09-08T09:25:58.967Z,99122.63
2017-09-08T09:28:28.024Z,99122.06
2017-09-08T09:30:57.067Z,99123.61
2017-09-08T09:33:26.138Z,99128.92
2017-09-08T09:35:55.180Z,99111.84
2017-09-08T09:38:25.035Z,99106.55
2017-09-08T09:40:54.396Z,99098.91
2017-09-08T09:43:23.423Z,99109.89
2017-09-08T09:45:52.502Z,99099.70
2017-09-08T09:48:22.359Z,99099.69
2017-09-08T09:50:51.404Z,99093.02
2017-09-08T09:53:21.219Z,99093.63
2017-09-08T09:55:50.384Z,99088.72
2017-09-08T09:58:19.413Z,99100.48
2017-09-08T10:00:49.247Z,99097.72
2017-09-08T10:03:18.356Z,99085.35
2017-09-08T10:05:47.367Z,99085.16
2017-09-08T10:08:16.894Z,99087.53
2017-09-08T10:10:45.943Z,99089.49
2017-09-08T10:13:14.985Z,99093.98
2017-09-08T10:15:44.191Z,99078.46
2017-09-08T10:18:13.243Z,99075.52
2017-09-08T10:20:42.355Z,99087.08
2017-09-08T10:23:11.424Z,99077.84
2017-09-08T10:25:40.480Z,99071.13
2017-09-08T10:28:10.321Z,99082.30
2017-09-08T10:30:39.360Z,99073.66
2017-09-08T10:33:08.452Z,99079.16
2017-09-08T10:35:37.513Z,99068.12
2017-09-08T10:38:07.136Z,99081.83
2017-09-08T10:40:36.195Z,99076.73
2017-09-08T10:43:06.087Z,99072.19
2017-09-08T10:45:35.908Z,99085.55
2017-09-08T10:48:06.020Z,99086.91
2017-09-08T10:50:35.863Z,99080.63
2017-09-08T10:53:05.964Z,99082.38
2017-09-08T10:55:35.799Z,99073.73
2017-09-08T10:58:05.274Z,99072.11
2017-09-08T11:00:34.308Z,99076.99
2017-09-08T11:03:03.412Z,99074.03
2017-09-08T11:05:32.472Z,99071.63
2017-09-08T11:08:02.313Z,99079.70
2017-09-08T11:10:31.380Z,99078.12
2017-09-08T11:13:01.203Z,99080.48
2017-09-08T11:15:30.286Z,99087.98
2017-09-08T11:18:00.128Z,99085.25
2017-09-08T11:20:29.197Z,99084.49
2017-09-08T11:22:59.005Z,99084.51
2017-09-08T11:25:28.830Z,99087.85
2017-09-08T11:27:58.396Z,99082.77
2017-09-08T11:30:28.276Z,99079.43
2017-09-08T11:33:02.850Z,99099.30
2017-09-08T11:35:38.372Z,99095.42
2017-09-08T11:38:07.682Z,99097.03
2017-09-08T11:40:36.732Z,99095.67
2017-09-08T11:43:05.825Z,99101.78
2017-09-08T11:45:35.195Z,99107.70
2017-09-08T11:48:04.302Z,99106.55
2017-09-08T11:50:33.406Z,99107.55
2017-09-08T11:53:03.279Z,99108.13
2017-09-08T11:55:32.308Z,99103.04
2017-09-08T11:58:03.195Z,99102.66
2017-09-08T12:00:33.054Z,99106.77
2017-09-08T12:03:02.157Z,99098.53
2017-09-08T12:05:31.961Z,99096.37
2017-09-08T12:08:01.827Z,99092.23
2017-09-08T12:10:30.869Z,99097.53
2017-09-08T12:13:00.698Z,99098.30
2017-09-08T12:15:29.797Z,99093.00
2017-09-08T12:17:59.565Z,99088.50
2017-09-08T12:20:28.631Z,99096.31
2017-09-08T12:22:57.670Z,99095.91
2017-09-08T12:25:27.492Z,99089.05
2017-09-08T12:27:57.660Z,99088.67
2017-09-08T12:30:26.674Z,99084.50
2017-09-08T12:32:55.787Z,99093.31
2017-09-08T12:35:24.827Z,99089.41
2017-09-08T12:37:53.921Z,99088.62
2017-09-08T12:40:22.988Z,99087.22
2017-09-08T12:42:52.835Z,99087.62
2017-09-08T12:45:21.904Z,99077.63
2017-09-08T12:47:50.942Z,99075.50
2017-09-08T12:50:20.042Z,99076.87
2017-09-08T12:52:49.089Z,99065.91
2017-09-08T12:55:18.459Z,99062.00
2017-09-08T12:57:47.518Z,99061.39
2017-09-08T13:00:16.586Z,99052.43
2017-09-08T13:02:46.094Z,99050.47
2017-09-08T13:05:15.926Z,99050.28
2017-09-08T13:07:45.016Z,99054.61
2017-09-08T13:10:14.159Z,99045.21
2017-09-08T13:12:43.221Z,99045.97
2017-09-08T13:15:12.336Z,99045.97
2017-09-08T13:17:41.355Z,99034.81
2017-09-08T13:20:10.420Z,99041.66
2017-09-08T13:22:39.490Z,99040.28
2017-09-08T13:25:09.624Z,99039.52
2017-09-08T13:27:38.662Z,99035.59
2017-09-08T13:30:08.564Z,99033.45
2017-09-08T13:32:37.634Z,99030.70
2017-09-08T13:35:06.727Z,99035.03
2017-09-08T13:37:35.779Z,99029.72
2017-09-08T13:40:04.876Z,99027.57
2017-09-08T13:42:34.686Z,99037.36
2017-09-08T13:45:04.523Z,99030.49
2017-09-08T13:47:33.763Z,99027.77
2017-09-08T13:50:02.879Z,99021.50
2017-09-08T13:52:31.892Z,99017.56
2017-09-08T13:55:01.745Z,99012.67
2017-09-08T13:57:31.651Z,99015.21
2017-09-08T14:00:01.925Z,99009.14
2017-09-08T14:02:31.944Z,99006.23
2017-09-08T14:05:01.793Z,99005.24
2017-09-08T14:07:30.890Z,98999.94
2017-09-08T14:09:59.932Z,99000.13
2017-09-08T14:12:29.048Z,98996.63
2017-09-08T14:14:58.103Z,98996.42
2017-09-08T14:17:27.165Z,98995.25
2017-09-08T14:19:56.292Z,98991.70
2017-09-08T14:22:25.345Z,98984.27
2017-09-08T14:24:54.387Z,98984.88
2017-09-08T14:27:23.436Z,98990.73
2017-09-08T14:29:52.486Z,98983.48
2017-09-08T14:32:21.524Z,98985.65
2017-09-08T14:34:50.600Z,98972.31
2017-09-08T14:37:19.657Z,98977.61
2017-09-08T14:39:48.727Z,98971.34
2017-09-08T14:42:17.796Z,98965.86
2017-09-08T14:44:46.856Z,98967.23
2017-09-08T14:47:15.937Z,98959.16
2017-09-08T14:49:45.028Z,98960.38
2017-09-08T14:52:14.159Z,98965.28
2017-09-08T14:54:43.211Z,98958.80
2017-09-08T14:57:12.641Z,98957.25
2017-09-08T14:59:41.711Z,98957.98
2017-09-08T15:02:10.804Z,98950.16
2017-09-08T15:04:39.886Z,98947.23
2017-09-08T15:07:08.941Z,98942.31
2017-09-08T15:09:38.036Z,98942.13
2017-09-08T15:12:07.077Z,98935.47
2017-09-08T15:14:36.163Z,98932.37
2017-09-08T15:17:05.229Z,98942.56
2017-09-08T15:19:34.272Z,98934.49
2017-09-08T15:22:03.386Z,98928.42
2017-09-08T15:24:32.435Z,98932.33
2017-09-08T15:27:02.252Z,98920.80
2017-09-08T15:29:31.310Z,98918.23
2017-09-08T15:32:00.938Z,98911.77
2017-09-08T15:34:30.756Z,98905.91
2017-09-08T15:37:00.627Z,98904.54
2017-09-08T15:39:29.733Z,98904.33
2017-09-08T15:41:58.845Z,98902.19
2017-09-08T15:44:27.884Z,98912.55
2017-09-08T15:46:56.937Z,98906.28
2017-09-08T15:49:26.743Z,98907.09
2017-09-08T15:51:55.813Z,98895.92
2017-09-08T15:54:24.881Z,98902.17
2017-09-08T15:56:53.980Z,98899.62
2017-09-08T15:59:23.074Z,98895.71
2017-09-08T16:01:52.119Z,98901.00
2017-09-08T16:04:21.537Z,98902.17
2017-09-08T16:06:50.554Z,98907.08
2017-09-08T16:09:19.600Z,98894.55
2017-09-08T16:11:48.674Z,98899.45
2017-09-08T16:14:17.747Z,98892.59
2017-09-08T16:16:46.788Z,98894.75
2017-09-08T16:19:15.869Z,98897.88
2017-09-08T16:21:44.931Z,98889.64
2017-09-08T16:24:14.038Z,98887.69
2017-09-08T16:26:43.109Z,98888.09
2017-09-08T16:29:12.225Z,98877.72
2017-09-08T16:31:41.281Z,98885.14
2017-09-08T16:34:11.125Z,98877.30
2017-09-08T16:36:40.209Z,98878.30
2017-09-08T16:39:09.586Z,98881.64
2017-09-08T16:41:38.625Z,98884.00
2017-09-08T16:44:07.727Z,98879.07
2017-09-08T16:46:36.800Z,98883.18
2017-09-08T16:49:06.623Z,98892.80
2017-09-08T16:51:35.721Z,98880.23
2017-09-08T16:54:04.833Z,98870.64
2017-09-08T16:56:33.859Z,98875.16
2017-09-08T16:59:02.887Z,98863.20
2017-09-08T17:01:32.017Z,98878.88
2017-09-08T17:04:01.045Z,98880.27
2017-09-08T17:06:30.088Z,98872.82
2017-09-08T17:08:59.174Z,98873.58
2017-09-08T17:11:28.241Z,98875.95
2017-09-08T17:13:58.113Z,98875.95
2017-09-08T17:16:27.160Z,98870.67
2017-09-08T17:18:56.980Z,98869.67
2017-09-08T17:21:26.048Z,98861.45
2017-09-08T17:23:55.095Z,98858.72
2017-09-08T17:26:24.177Z,98859.69
2017-09-08T17:28:53.236Z,98852.46
2017-09-08T17:31:23.331Z,98848.55
2017-09-08T17:33:52.381Z,98844.82
2017-09-08T17:36:21.468Z,98837.18
2017-09-08T17:38:51.272Z,98834.84
2017-09-08T17:41:20.337Z,98825.64
2017-09-08T17:43:49.389Z,98829.35
2017-09-08T17:46:18.448Z,98819.16
2017-09-08T17:48:47.648Z,98809.18
2017-09-08T17:51:17.491Z,98808.38
2017-09-08T17:53:46.567Z,98810.15
2017-09-08T17:56:15.628Z,98805.65
2017-09-08T17:58:44.665Z,98800.56
2017-09-08T18:01:13.720Z,98817.20
2017-09-08T18:03:42.764Z,98816.83
2017-09-08T18:06:11.879Z,98809.58
2017-09-08T18:08:40.906Z,98816.64
2017-09-08T18:11:09.990Z,98814.88
2017-09-08T18:13:39.050Z,98810.17
2017-09-08T18:16:08.145Z,98808.42
2017-09-08T18:18:37.981Z,98805.88
2017-09-08T18:21:07.047Z,98805.08
2017-09-08T18:23:36.103Z,98809.38
2017-09-08T18:26:05.185Z,98810.16
2017-09-08T18:28:34.296Z,98806.66
2017-09-08T18:31:03.409Z,98785.30
2017-09-08T18:33:32.435Z,98765.52
2017-09-08T18:36:01.597Z,98800.58
2017-09-08T18:38:31.425Z,98792.35
2017-09-08T18:41:00.792Z,98795.11
2017-09-08T18:43:29.837Z,98791.77
2017-09-08T18:45:58.928Z,98800.19
2017-09-08T18:48:27.989Z,98784.34
2017-09-08T18:50:57.793Z,98791.77
2017-09-08T18:53:26.846Z,98778.64
2017-09-08T18:55:55.898Z,98773.95
2017-09-08T18:58:25.719Z,98752.23
2017-09-08T19:00:55.585Z,98755.74
2017-09-08T19:03:24.616Z,98746.77
2017-09-08T19:05:54.586Z,98740.69
2017-09-08T19:08:23.637Z,98744.23
2017-09-08T19:10:53.466Z,98739.16
2017-09-08T19:13:22.524Z,98725.06
2017-09-08T19:15:51.590Z,98730.93
2017-09-08T19:18:20.653Z,98756.95
2017-09-08T19:20:49.693Z,98748.53
2017-09-08T19:23:18.767Z,98742.28
2017-09-08T19:25:47.828Z,98754.02
2017-09-08T19:28:16.889Z,98750.09
2017-09-08T19:30:46.309Z,98741.88
2017-09-08T19:33:15.365Z,98727.00
2017-09-08T19:35:44.415Z,98720.55
2017-09-08T19:38:14.438Z,98708.39
2017-09-08T19:40:43.556Z,98701.17
2017-09-08T19:43:12.660Z,98700.40
2017-09-08T19:45:41.737Z,98698.63
2017-09-08T19:48:10.852Z,98699.83
2017-09-08T19:50:39.937Z,98695.91
2017-09-08T19:53:09.028Z,98701.59
2017-09-08T19:55:38.141Z,98706.70
2017-09-08T19:58:07.225Z,98706.48
2017-09-08T20:00:36.341Z,98693.55
2017-09-08T20:03:05.390Z,98686.52
2017-09-08T20:05:34.474Z,98688.25
2017-09-08T20:08:04.465Z,98683.94
2017-09-08T20:10:33.516Z,98682.74
2017-09-08T20:13:02.601Z,98682.92
2017-09-08T20:15:32.441Z,98676.27
2017-09-08T20:18:01.505Z,98680.75
2017-09-08T20:20:31.601Z,98671.53
2017-09-08T20:23:01.425Z,98663.90
2017-09-08T20:25:31.291Z,98658.40
2017-09-08T20:28:00.404Z,98655.84
2017-09-08T20:30:29.444Z,98651.36
2017-09-08T20:32:58.794Z,98648.84
2017-09-08T20:35:27.824Z,98659.22
2017-09-08T20:37:56.928Z,98662.59
2017-09-08T20:40:27.105Z,98650.23
2017-09-08T20:42:56.144Z,98651.05
2017-09-08T20:45:25.189Z,98633.80
2017-09-08T20:47:54.263Z,98622.22
2017-09-08T20:50:23.320Z,98622.22
2017-09-08T20:52:53.211Z,98625.34
2017-09-08T20:55:22.284Z,98629.28
2017-09-08T20:57:51.356Z,98630.65
2017-09-08T21:00:20.410Z,98623.19
2017-09-08T21:02:50.241Z,98626.52
2017-09-08T21:05:19.320Z,98623.56
2017-09-08T21:07:49.183Z,98621.78
2017-09-08T21:10:18.259Z,98621.78
2017-09-08T21:12:47.292Z,98625.51
2017-09-08T21:15:16.405Z,98625.30
2017-09-08T21:17:45.447Z,98623.38
2017-09-08T21:20:14.558Z,98629.05
2017-09-08T21:22:43.626Z,98629.25
2017-09-08T21:25:12.695Z,98630.60
2017-09-08T21:27:42.529Z,98632.73
2017-09-08T21:30:12.328Z,98626.70
2017-09-08T21:32:42.145Z,98625.32
2017-09-08T21:35:11.218Z,98620.20
2017-09-08T21:37:40.299Z,98626.51
2017-09-08T21:40:09.730Z,98613.20
2017-09-08T21:42:38.780Z,98618.67
2017-09-08T21:45:07.850Z,98610.47
2017-09-08T21:47:36.916Z,98610.65
2017-09-08T21:50:06.912Z,98609.48
2017-09-08T21:52:35.939Z,98601.08
2017-09-08T21:55:05.012Z,98598.34
2017-09-08T21:57:34.844Z,98594.23
2017-09-08T22:00:04.709Z,98585.02
2017-09-08T22:02:33.789Z,98580.52
2017-09-08T22:05:02.840Z,98574.25
2017-09-08T22:07:32.660Z,98575.24
2017-09-08T22:10:01.755Z,98578.35
2017-09-08T22:12:31.544Z,98577.78
2017-09-08T22:15:00.611Z,98571.15
2017-09-08T22:17:29.756Z,98579.16
2017-09-08T22:19:58.836Z,98576.63
2017-09-08T22:22:27.873Z,98573.67
2017-09-08T22:24:56.931Z,98574.06
2017-09-08T22:27:27.023Z,98576.43
2017-09-08T22:29:56.087Z,98576.23
2017-09-08T22:32:25.130Z,98571.34
2017-09-08T22:34:54.197Z,98564.50
2017-09-08T22:37:23.277Z,98563.91
2017-09-08T22:39:52.358Z,98554.72
2017-09-08T22:42:21.448Z,98548.27
2017-09-08T22:44:50.518Z,98549.39
2017-09-08T22:47:19.602Z,98547.85
2017-09-08T22:49:48.639Z,98545.11
2017-09-08T22:52:17.697Z,98539.24
2017-09-08T22:54:47.525Z,98542.55
2017-09-08T22:57:16.893Z,98537.09
2017-09-08T22:59:45.976Z,98539.06
2017-09-08T23:02:15.047Z,98540.39
2017-09-08T23:04:44.080Z,98542.55
2017-09-08T23:07:13.185Z,98547.84
2017-09-08T23:09:42.218Z,98537.11
2017-09-08T23:12:11.317Z,98531.41
2017-09-08T23:14:41.117Z,98533.78
2017-09-08T23:17:10.980Z,98530.66
2017-09-08T23:19:40.075Z,98530.67
2017-09-08T23:22:09.141Z,98526.38
2017-09-08T23:24:38.217Z,98523.83
2017-09-08T23:27:08.065Z,98520.70
2017-09-08T23:29:37.136Z,98526.79
2017-09-08T23:32:06.197Z,98517.59
2017-09-08T23:34:35.264Z,98520.31
2017-09-08T23:37:05.097Z,98517.59
2017-09-08T23:39:34.141Z,98510.00
2017-09-08T23:42:03.196Z,98508.43
2017-09-08T23:44:33.005Z,98509.02
2017-09-08T23:47:02.846Z,98509.81
2017-09-08T23:49:38.678Z,98504.73
2017-09-08T23:52:07.712Z,98502.19
2017-09-08T23:54:36.761Z,98501.39
2017-09-08T23:57:06.619Z,98495.75
2017-09-08T23:59:35.660Z,98501.01
